createdAt,value
2018-07-03T00:03:25.673Z,96829.02
2018-07-03T00:08:20.319Z,96832.12
2018-07-03T00:13:15.024Z,96849.71
2018-07-03T00:18:09.644Z,96847.98
2018-07-03T00:23:04.262Z,96851.63
2018-07-03T00:27:58.866Z,96845.60
2018-07-03T00:32:53.736Z,96852.34
2018-07-03T00:37:48.347Z,96848.56
2018-07-03T00:42:42.955Z,96847.81
2018-07-03T00:47:37.541Z,96846.77
2018-07-03T00:52:32.444Z,96850.66
2018-07-03T00:57:26.723Z,96851.44
2018-07-03T01:02:21.051Z,96855.38
2018-07-03T01:07:15.652Z,96861.42
2018-07-03T01:12:09.958Z,96856.73
2018-07-03T01:17:04.615Z,96863.00
2018-07-03T01:21:59.233Z,96859.95
2018-07-03T01:26:53.951Z,96854.92
2018-07-03T01:31:48.562Z,96860.79
2018-07-03T01:36:43.139Z,96870.19
2018-07-03T01:41:37.772Z,96858.33
2018-07-03T01:46:32.388Z,96856.41
2018-07-03T01:51:27.257Z,96853.56
2018-07-03T01:56:21.841Z,96853.48
2018-07-03T02:01:16.657Z,96856.36
2018-07-03T02:06:11.228Z,96859.59
2018-07-03T02:11:05.832Z,96856.81
2018-07-03T02:16:00.439Z,96858.97
2018-07-03T02:20:55.044Z,96863.63
2018-07-03T02:25:49.616Z,96864.24
2018-07-03T02:30:44.215Z,96862.83
2018-07-03T02:35:38.831Z,96860.27
2018-07-03T02:40:33.456Z,96872.81
2018-07-03T02:45:28.053Z,96870.17
2018-07-03T02:50:22.607Z,96868.63
2018-07-03T02:55:17.166Z,96872.80
2018-07-03T03:00:12.068Z,96879.69
2018-07-03T03:05:06.763Z,96887.05
2018-07-03T03:10:01.372Z,96888.61
2018-07-03T03:14:56.029Z,96884.96
2018-07-03T03:19:50.607Z,96894.26
2018-07-03T03:24:45.231Z,96905.58
2018-07-03T03:29:39.949Z,96911.19
2018-07-03T03:34:34.527Z,96910.08
2018-07-03T03:39:29.135Z,96906.46
2018-07-03T03:44:23.713Z,96915.31
2018-07-03T03:49:18.348Z,96905.83
2018-07-03T03:54:13.004Z,96907.93
2018-07-03T03:59:07.298Z,96908.31
2018-07-03T04:04:01.926Z,96902.93
2018-07-03T04:08:56.196Z,96905.05
2018-07-03T04:13:51.090Z,96901.30
2018-07-03T04:18:45.686Z,96902.84
2018-07-03T04:23:40.291Z,96896.86
2018-07-03T04:28:35.144Z,96898.08
2018-07-03T04:33:29.827Z,96898.67
2018-07-03T04:38:24.428Z,96909.17
2018-07-03T04:43:19.211Z,96901.89
2018-07-03T04:48:13.909Z,96895.36
2018-07-03T04:53:08.536Z,96905.77
2018-07-03T04:58:03.696Z,96898.00
2018-07-03T05:02:59.531Z,96894.16
2018-07-03T05:07:54.274Z,96901.53
2018-07-03T05:12:48.859Z,96888.15
2018-07-03T05:17:43.437Z,96907.48
2018-07-03T05:22:38.085Z,96907.56
2018-07-03T05:27:32.711Z,96919.53
2018-07-03T05:32:27.457Z,96921.14
2018-07-03T05:37:22.045Z,96926.41
2018-07-03T05:42:16.667Z,96945.54
2018-07-03T05:47:11.255Z,96935.00
2018-07-03T05:52:06.126Z,96945.86
2018-07-03T05:57:00.740Z,96944.84
2018-07-03T06:01:55.401Z,96942.56
2018-07-03T06:06:50.046Z,96956.08
2018-07-03T06:11:44.659Z,96960.75
2018-07-03T06:16:39.256Z,96962.02
2018-07-03T06:21:33.847Z,96957.77
2018-07-03T06:26:28.501Z,96969.38
2018-07-03T06:31:24.063Z,96958.00
2018-07-03T06:36:18.656Z,96973.83
2018-07-03T06:41:13.227Z,96970.88
2018-07-03T06:46:07.832Z,96970.92
2018-07-03T06:51:02.460Z,96979.68
2018-07-03T06:55:57.088Z,96990.41
2018-07-03T07:00:51.684Z,96990.75
2018-07-03T07:05:46.283Z,96999.78
2018-07-03T07:10:40.943Z,97007.11
2018-07-03T07:15:35.610Z,97024.22
2018-07-03T07:20:29.890Z,97053.02
2018-07-03T07:25:24.456Z,97066.22
2018-07-03T07:30:19.073Z,97065.55
2018-07-03T07:35:13.691Z,97064.25
2018-07-03T07:40:08.316Z,97061.05
2018-07-03T07:45:02.941Z,97070.36
2018-07-03T07:49:57.613Z,97077.11
2018-07-03T07:54:52.204Z,97087.73
2018-07-03T07:59:46.772Z,97110.72
2018-07-03T08:04:41.380Z,97114.61
2018-07-03T08:09:35.936Z,97145.13
2018-07-03T08:14:30.569Z,97158.64
2018-07-03T08:19:25.156Z,97170.11
2018-07-03T08:24:19.774Z,97176.78
2018-07-03T08:29:14.327Z,97180.63
2018-07-03T08:34:08.993Z,97185.66
2018-07-03T08:39:03.892Z,97199.31
2018-07-03T08:43:58.549Z,97207.72
2018-07-03T08:48:53.163Z,97209.59
2018-07-03T08:53:47.872Z,97230.61
2018-07-03T08:58:42.491Z,97225.38
2018-07-03T09:03:37.147Z,97232.66
2018-07-03T09:08:31.791Z,97247.63
2018-07-03T09:13:26.560Z,97244.91
2018-07-03T09:18:21.481Z,97250.52
2018-07-03T09:23:16.396Z,97253.14
2018-07-03T09:28:11.152Z,97242.19
2018-07-03T09:33:05.880Z,97228.59
2018-07-03T09:38:00.519Z,97219.95
2018-07-03T09:42:55.223Z,97215.64
2018-07-03T09:47:49.831Z,97219.92
2018-07-03T09:52:44.418Z,97211.66
2018-07-03T09:57:39.054Z,97216.47
2018-07-03T10:02:33.652Z,97228.78
2018-07-03T10:07:28.249Z,97240.17
2018-07-03T10:12:22.907Z,97239.73
2018-07-03T10:17:17.540Z,97237.58
2018-07-03T10:22:12.147Z,97248.00
2018-07-03T10:27:06.791Z,97265.75
2018-07-03T10:32:01.420Z,97274.62
2018-07-03T10:36:56.018Z,97272.36
2018-07-03T10:41:50.663Z,97291.91
2018-07-03T10:46:45.295Z,97284.20
2018-07-03T10:51:39.857Z,97295.05
2018-07-03T10:56:34.463Z,97282.18
2018-07-03T11:01:29.105Z,97282.41
2018-07-03T11:06:23.721Z,97273.39
2018-07-03T11:11:18.327Z,97258.98
2018-07-03T11:16:12.976Z,97247.70
2018-07-03T11:21:08.051Z,97251.98
2018-07-03T11:26:02.700Z,97254.47
2018-07-03T11:30:57.421Z,97243.05
2018-07-03T11:35:52.053Z,97248.05
2018-07-03T11:40:46.707Z,97251.46
2018-07-03T11:45:41.335Z,97241.81
2018-07-03T11:50:35.956Z,97239.48
2018-07-03T11:55:30.592Z,97226.65
2018-07-03T12:00:25.264Z,97217.80
2018-07-03T12:05:19.868Z,97213.98
2018-07-03T12:10:14.453Z,97203.76
2018-07-03T12:15:09.104Z,97204.98
2018-07-03T12:20:03.860Z,97201.95
2018-07-03T12:24:58.456Z,97193.64
2018-07-03T12:29:53.131Z,97198.28
2018-07-03T12:34:47.699Z,97197.17
2018-07-03T12:39:42.307Z,97193.39
2018-07-03T12:44:37.067Z,97191.77
2018-07-03T12:49:31.659Z,97181.73
2018-07-03T12:54:26.232Z,97183.15
2018-07-03T12:59:20.859Z,97175.14
2018-07-03T13:04:15.450Z,97164.27
2018-07-03T13:09:11.868Z,97155.63
2018-07-03T13:14:06.763Z,97143.41
2018-07-03T13:19:01.054Z,97135.59
2018-07-03T13:23:55.678Z,97128.94
2018-07-03T13:28:50.364Z,97121.20
2018-07-03T13:33:45.007Z,97113.73
2018-07-03T13:38:39.619Z,97111.16
2018-07-03T13:43:34.228Z,97110.88
2018-07-03T13:48:28.924Z,97101.91
2018-07-03T13:53:23.461Z,97099.09
2018-07-03T13:58:18.095Z,97096.83
2018-07-03T14:03:12.716Z,97089.59
2018-07-03T14:08:07.412Z,97088.16
2018-07-03T14:13:02.020Z,97084.51
2018-07-03T14:17:56.993Z,97087.33
2018-07-03T14:22:51.624Z,97080.91
2018-07-03T14:27:46.239Z,97082.14
2018-07-03T14:32:40.860Z,97080.19
2018-07-03T14:37:35.533Z,97085.04
2018-07-03T14:42:30.174Z,97085.78
2018-07-03T14:47:24.743Z,97087.62
2018-07-03T14:52:19.424Z,97082.78
2018-07-03T14:57:14.031Z,97092.09
2018-07-03T15:02:08.771Z,97089.59
2018-07-03T15:07:03.331Z,97086.89
2018-07-03T15:11:57.919Z,97088.38
2018-07-03T15:16:52.530Z,97082.25
2018-07-03T15:21:47.183Z,97081.56
2018-07-03T15:26:42.545Z,97091.98
2018-07-03T15:31:37.348Z,97089.05
2018-07-03T15:36:32.002Z,97097.29
2018-07-03T15:41:26.643Z,97101.74
2018-07-03T15:46:21.263Z,97094.02
2018-07-03T15:51:15.863Z,97097.95
2018-07-03T15:56:10.507Z,97089.28
2018-07-03T16:01:05.312Z,97077.35
2018-07-03T16:09:17.088Z,97080.38
2018-07-03T16:14:12.305Z,97084.50
2018-07-03T16:19:12.162Z,97076.31
2018-07-03T16:24:07.263Z,97074.87
2018-07-03T16:29:01.564Z,97074.98
2018-07-03T16:33:57.108Z,97075.14
2018-07-03T16:38:51.950Z,97065.09
2018-07-03T16:43:46.504Z,97068.91
2018-07-03T16:48:41.256Z,97067.55
2018-07-03T16:53:35.820Z,97072.54
2018-07-03T16:58:30.497Z,97075.05
2018-07-03T17:03:25.132Z,97068.67
2018-07-03T17:08:19.806Z,97064.70
2018-07-03T17:13:14.415Z,97070.12
2018-07-03T17:18:09.151Z,97080.00
2018-07-03T17:23:03.804Z,97068.16
2018-07-03T17:27:58.094Z,97067.95
2018-07-03T17:32:52.727Z,97065.33
2018-07-03T17:37:47.353Z,97074.08
2018-07-03T17:42:58.691Z,97074.83
2018-07-03T17:47:53.340Z,97078.83
2018-07-03T17:52:47.687Z,97070.42
2018-07-03T17:57:48.116Z,97072.09
2018-07-03T18:02:42.995Z,97076.14
2018-07-03T18:07:38.282Z,97070.47
2018-07-03T18:12:32.896Z,97065.92
2018-07-03T18:17:27.543Z,97072.20
2018-07-03T18:22:22.184Z,97070.12
2018-07-03T18:27:16.865Z,97069.94
2018-07-03T18:32:11.485Z,97066.36
2018-07-03T18:37:06.186Z,97057.77
2018-07-03T18:42:00.819Z,97053.28
2018-07-03T18:46:55.459Z,97050.50
2018-07-03T18:51:50.122Z,97048.61
2018-07-03T18:56:44.822Z,97043.97
2018-07-03T19:01:39.492Z,97037.80
2018-07-03T19:06:34.142Z,97033.13
2018-07-03T19:11:28.795Z,97032.58
2018-07-03T19:16:23.935Z,97041.03
2018-07-03T19:21:18.722Z,97042.21
2018-07-03T19:26:14.232Z,97048.20
2018-07-03T19:31:08.921Z,97056.90
2018-07-03T19:36:03.659Z,97054.02
2018-07-03T19:40:58.244Z,97048.57
2018-07-03T19:45:53.786Z,97047.98
2018-07-03T19:50:49.797Z,97048.70
2018-07-03T19:55:44.757Z,97044.63
2018-07-03T20:00:39.468Z,97051.48
2018-07-03T20:05:34.435Z,97058.00
2018-07-03T20:10:29.103Z,97054.86
2018-07-03T20:15:23.764Z,97049.58
2018-07-03T20:20:18.376Z,97043.93
2018-07-03T20:25:13.640Z,97050.15
2018-07-03T20:30:08.327Z,97055.61
2018-07-03T20:35:03.256Z,97053.50
2018-07-03T20:39:57.882Z,97055.16
2018-07-03T20:44:52.500Z,97063.09
2018-07-03T20:49:47.185Z,97073.23
2018-07-03T20:54:43.631Z,97085.20
2018-07-03T20:59:38.234Z,97083.27
2018-07-03T21:04:32.886Z,97077.95
2018-07-03T21:09:27.485Z,97079.78
2018-07-03T21:14:22.063Z,97080.92
2018-07-03T21:19:21.224Z,97074.13
2018-07-03T21:24:15.851Z,97067.63
2018-07-03T21:29:10.477Z,97055.17
2018-07-03T21:34:05.165Z,97051.53
2018-07-03T21:38:59.805Z,97035.56
2018-07-03T21:43:54.402Z,97039.89
2018-07-03T21:48:49.061Z,97049.20
2018-07-03T21:53:43.645Z,97058.67
2018-07-03T21:58:38.228Z,97076.43
2018-07-03T22:03:32.855Z,97087.56
2018-07-03T22:08:27.496Z,97102.19
2018-07-03T22:13:22.057Z,97119.93
2018-07-03T22:18:16.611Z,97129.88
2018-07-03T22:23:11.182Z,97123.24
2018-07-03T22:28:05.847Z,97122.11
2018-07-03T22:33:00.439Z,97123.28
2018-07-03T22:37:55.074Z,97129.91
2018-07-03T22:42:49.700Z,97128.26
2018-07-03T22:47:44.283Z,97131.09
2018-07-03T22:52:38.920Z,97120.80
2018-07-03T22:57:33.506Z,97127.90
2018-07-03T23:02:28.114Z,97128.59
2018-07-03T23:07:22.724Z,97122.57
2018-07-03T23:12:19.116Z,97120.91
2018-07-03T23:17:13.734Z,97124.05
2018-07-03T23:22:08.343Z,97122.90
2018-07-03T23:27:02.968Z,97129.53
2018-07-03T23:36:48.348Z,97114.33
2018-07-03T23:41:42.940Z,97107.37
2018-07-03T23:46:54.099Z,97106.16
2018-07-03T23:52:05.257Z,97102.55
2018-07-03T23:57:16.375Z,97098.28
